createdAt,value
2022-12-18T12:43:18.441Z,102313.37
2022-12-18T12:46:01.522Z,102314.39
2022-12-18T12:48:53.742Z,102312.27
2022-12-18T12:51:33.531Z,102316.94
2022-12-18T12:54:06.964Z,102313.61
2022-12-18T12:56:45.884Z,102324.26
2022-12-18T12:59:35.691Z,102329.05
2022-12-18T13:02:25.641Z,102350.17
2022-12-18T13:05:08.044Z,102349.98
2022-12-18T13:07:41.622Z,102359.55
2022-12-18T13:10:22.233Z,102352.73
2022-12-18T13:13:02.219Z,102353.75
2022-12-18T13:15:41.857Z,102357.45
2022-12-18T13:18:15.604Z,102365.50
2022-12-18T13:20:56.304Z,102372.17
2022-12-18T13:23:30.441Z,102379.80
2022-12-18T13:26:01.727Z,102385.90
2022-12-18T13:28:53.601Z,102373.94
2022-12-18T13:31:45.278Z,102379.20
2022-12-18T13:34:27.713Z,102371.74
2022-12-18T13:37:00.526Z,102371.88
2022-12-18T13:39:36.753Z,102376.94
2022-12-18T13:42:10.439Z,102378.89
2022-12-18T13:44:42.449Z,102378.98
2022-12-18T13:47:36.458Z,102382.13
2022-12-18T13:50:18.654Z,102382.23
2022-12-18T13:52:50.291Z,102384.94
2022-12-18T13:55:22.774Z,102387.14
2022-12-18T13:57:55.867Z,102382.36
2022-12-18T14:00:31.837Z,102392.09
2022-12-18T14:03:03.067Z,102397.77
2022-12-18T14:05:43.365Z,102401.34
2022-12-18T14:08:18.187Z,102397.77
2022-12-18T14:10:50.491Z,102395.98
2022-12-18T14:13:32.972Z,102400.41
2022-12-18T14:16:06.061Z,102412.72
2022-12-18T14:18:48.212Z,102411.83
2022-12-18T14:21:27.008Z,102406.94
2022-12-18T14:24:11.943Z,102405.63
2022-12-18T14:26:42.402Z,102402.09
2022-12-18T14:29:24.759Z,102397.23
2022-12-18T14:32:18.326Z,102404.73
2022-12-18T14:34:58.085Z,102402.09
2022-12-18T14:37:29.266Z,102403.84
2022-12-18T14:40:10.606Z,102404.66
2022-12-18T14:42:35.860Z,102402.45
2022-12-18T14:45:43.858Z,102402.87
2022-12-18T14:48:24.330Z,102417.46
2022-12-18T14:51:00.652Z,102425.73
2022-12-18T14:53:56.618Z,102429.27
2022-12-18T14:56:30.226Z,102428.77
2022-12-18T14:59:22.332Z,102424.35
2022-12-18T15:01:52.994Z,102424.81
2022-12-18T15:04:36.311Z,102416.86
2022-12-18T15:07:23.411Z,102423.03
2022-12-18T15:10:12.402Z,102435.80
2022-12-18T15:12:45.337Z,102449.00
2022-12-18T15:15:38.319Z,102451.17
2022-12-18T15:18:14.243Z,102444.08
2022-12-18T15:21:00.156Z,102444.50
2022-12-18T15:23:33.584Z,102435.27
2022-12-18T15:26:10.015Z,102441.44
2022-12-18T15:28:43.739Z,102438.80
2022-12-18T15:31:19.822Z,102437.05
2022-12-18T15:33:55.691Z,102446.72
2022-12-18T15:36:31.867Z,102451.17
2022-12-18T15:39:05.107Z,102449.42
2022-12-18T15:42:08.113Z,102452.13
2022-12-18T15:44:38.758Z,102456.84
2022-12-18T15:47:12.112Z,102458.59
2022-12-18T15:49:42.408Z,102457.63
2022-12-18T15:52:17.044Z,102451.82
2022-12-18T15:55:05.401Z,102452.61
2022-12-18T15:57:35.704Z,102454.71
2022-12-18T16:00:06.912Z,102464.02
2022-12-18T16:02:37.226Z,102460.37
2022-12-18T16:05:13.642Z,102458.73
2022-12-18T16:07:43.978Z,102456.85
2022-12-18T16:10:14.556Z,102458.59
2022-12-18T16:12:45.243Z,102457.20
2022-12-18T16:15:22.423Z,102455.82
2022-12-18T16:17:49.529Z,102465.48
2022-12-18T16:20:22.209Z,102473.33
2022-12-18T16:22:54.081Z,102461.27
2022-12-18T16:25:29.570Z,102466.34
2022-12-18T16:27:59.926Z,102458.74
2022-12-18T16:30:38.360Z,102459.24
2022-12-18T16:33:04.097Z,102465.41
2022-12-18T16:35:34.625Z,102461.95
2022-12-18T16:38:05.156Z,102458.53
2022-12-18T16:40:37.407Z,102463.38
2022-12-18T16:43:07.504Z,102459.02
2022-12-18T16:45:37.632Z,102461.66
2022-12-18T16:48:08.153Z,102461.66
2022-12-18T16:50:38.311Z,102462.06
2022-12-18T16:53:08.468Z,102471.36
2022-12-18T16:55:38.704Z,102478.81
2022-12-18T16:58:09.107Z,102489.83
2022-12-18T17:00:41.350Z,102497.83
2022-12-18T17:03:11.717Z,102500.11
2022-12-18T17:05:42.627Z,102496.58
2022-12-18T17:08:13.003Z,102496.65
2022-12-18T17:10:43.372Z,102493.08
2022-12-18T17:13:13.499Z,102496.69
2022-12-18T17:15:43.697Z,102499.00
2022-12-18T17:18:13.840Z,102505.67
2022-12-18T17:20:44.009Z,102497.75
2022-12-18T17:23:14.187Z,102500.89
2022-12-18T17:25:44.423Z,102495.68
2022-12-18T17:28:14.529Z,102495.68
2022-12-18T17:30:44.780Z,102500.10
2022-12-18T17:33:15.149Z,102495.68
2022-12-18T17:35:46.545Z,102496.22
2022-12-18T17:38:19.345Z,102500.31
2022-12-18T17:40:49.477Z,102501.67
2022-12-18T17:43:21.416Z,102509.80
2022-12-18T17:45:53.300Z,102503.45
2022-12-18T17:48:23.532Z,102509.25
2022-12-18T17:50:54.647Z,102513.92
2022-12-18T17:53:24.784Z,102523.84
2022-12-18T17:56:01.078Z,102520.09
2022-12-18T17:58:31.332Z,102526.52
2022-12-18T18:01:02.029Z,102526.70
2022-12-18T18:03:34.120Z,102528.78
2022-12-18T18:06:04.564Z,102521.64
2022-12-18T18:08:36.233Z,102529.10
2022-12-18T18:11:26.809Z,102528.34
2022-12-18T18:14:04.558Z,102521.43
2022-12-18T18:16:40.569Z,102524.03
2022-12-18T18:19:14.208Z,102524.06
2022-12-18T18:21:47.114Z,102524.28
2022-12-18T18:24:20.807Z,102522.10
2022-12-18T18:26:51.780Z,102531.41
2022-12-18T18:29:25.363Z,102539.73
2022-12-18T18:31:57.413Z,102530.29
2022-12-18T18:34:30.705Z,102529.13
2022-12-18T18:37:02.291Z,102529.91
2022-12-18T18:39:32.821Z,102534.07
2022-12-18T18:42:03.118Z,102524.13
2022-12-18T18:44:34.025Z,102521.60
2022-12-18T18:47:06.306Z,102508.51
2022-12-18T18:49:36.309Z,102511.06
2022-12-18T18:52:07.539Z,102520.77
2022-12-18T18:54:37.622Z,102521.16
2022-12-18T18:57:20.527Z,102508.37
2022-12-18T18:59:41.651Z,102490.91
2022-12-18T19:02:14.889Z,102495.43
2022-12-18T19:04:46.885Z,102513.23
2022-12-18T19:07:29.981Z,102533.41
2022-12-18T19:09:52.158Z,102539.16
2022-12-18T19:12:40.488Z,102528.94
2022-12-18T19:15:11.609Z,102514.63
2022-12-18T19:17:44.779Z,102518.09
2022-12-18T19:20:15.922Z,102507.39
2022-12-18T19:22:54.898Z,102507.92
2022-12-18T19:25:18.481Z,102517.91
2022-12-18T19:27:49.060Z,102535.73
2022-12-18T19:30:19.235Z,102539.81
2022-12-18T19:32:49.391Z,102531.37
2022-12-18T19:35:19.778Z,102541.44
2022-12-18T19:37:50.374Z,102542.55
2022-12-18T19:40:20.730Z,102544.55
2022-12-18T19:42:51.157Z,102551.47
2022-12-18T19:45:21.422Z,102546.76
2022-12-18T19:47:53.421Z,102537.23
2022-12-18T19:50:23.803Z,102539.16
2022-12-18T19:52:54.723Z,102550.25
2022-12-18T19:55:25.096Z,102541.86
2022-12-18T19:57:55.477Z,102537.48
2022-12-18T20:00:25.855Z,102536.16
2022-12-18T20:03:02.437Z,102532.20
2022-12-18T20:05:28.699Z,102536.16
2022-12-18T20:07:59.559Z,102521.50
2022-12-18T20:10:32.249Z,102536.77
2022-12-18T20:13:02.532Z,102539.11
2022-12-18T20:15:32.837Z,102528.63
2022-12-18T20:18:03.120Z,102527.41
2022-12-18T20:20:33.764Z,102526.69
2022-12-18T20:23:05.112Z,102536.67
2022-12-18T20:25:35.374Z,102541.76
2022-12-18T20:28:06.135Z,102551.67
2022-12-18T20:30:36.364Z,102558.48
2022-12-18T20:33:06.686Z,102550.58
2022-12-18T20:35:37.093Z,102537.20
2022-12-18T20:38:07.248Z,102553.98
2022-12-18T20:40:38.041Z,102554.19
2022-12-18T20:43:12.431Z,102557.70
2022-12-18T20:45:41.339Z,102569.77
2022-12-18T20:48:13.886Z,102577.75
2022-12-18T20:50:44.152Z,102582.04
2022-12-18T20:53:14.255Z,102575.19
2022-12-18T20:55:44.739Z,102578.49
2022-12-18T20:58:14.983Z,102574.15
2022-12-18T21:00:45.237Z,102574.05
2022-12-18T21:03:15.532Z,102572.98
2022-12-18T21:05:45.918Z,102570.95
2022-12-18T21:08:16.261Z,102578.16
2022-12-18T21:10:46.511Z,102576.51
2022-12-18T21:13:17.037Z,102579.33
2022-12-18T21:15:48.914Z,102578.08
2022-12-18T21:18:19.142Z,102579.86
2022-12-18T21:20:49.967Z,102577.72
2022-12-18T21:23:20.431Z,102574.19
2022-12-18T21:25:55.850Z,102563.66
2022-12-18T21:28:27.147Z,102562.41
2022-12-18T21:30:58.664Z,102564.26
2022-12-18T21:33:29.066Z,102568.00
2022-12-18T21:35:59.263Z,102561.93
2022-12-18T21:38:29.569Z,102556.78
2022-12-18T21:40:59.999Z,102547.97
2022-12-18T21:43:48.169Z,102550.35
2022-12-18T21:46:18.732Z,102543.35
2022-12-18T21:48:49.046Z,102528.86
2022-12-18T21:51:19.311Z,102520.17
2022-12-18T21:53:49.576Z,102509.17
2022-12-18T21:56:20.037Z,102506.53
2022-12-18T21:58:56.684Z,102506.60
2022-12-18T22:01:23.388Z,102498.14
2022-12-18T22:03:53.536Z,102488.34
2022-12-18T22:06:23.755Z,102486.95
2022-12-18T22:08:53.925Z,102478.93
2022-12-18T22:11:24.286Z,102468.66
2022-12-18T22:13:54.397Z,102461.46
2022-12-18T22:16:24.786Z,102464.86
2022-12-18T22:18:56.097Z,102467.40
2022-12-18T22:21:29.743Z,102464.63
2022-12-18T22:24:06.183Z,102467.23
2022-12-18T22:26:40.301Z,102463.56
2022-12-18T22:29:39.682Z,102467.45
2022-12-18T22:32:15.199Z,102467.75
2022-12-18T22:34:45.734Z,102469.44
2022-12-18T22:37:15.797Z,102466.00
2022-12-18T22:39:46.019Z,102468.47
2022-12-18T22:42:16.403Z,102471.41
2022-12-18T22:44:46.420Z,102481.97
2022-12-18T22:47:16.635Z,102459.45
2022-12-18T22:49:46.813Z,102454.97
2022-12-18T22:52:17.092Z,102453.64
2022-12-18T22:54:48.927Z,102454.47
2022-12-18T22:57:19.158Z,102469.77
2022-12-18T22:59:49.428Z,102466.60
2022-12-18T23:02:20.076Z,102467.78
2022-12-18T23:04:50.423Z,102461.55
2022-12-18T23:07:20.544Z,102463.65
2022-12-18T23:10:00.664Z,102469.68
2022-12-18T23:12:24.603Z,102469.15
2022-12-18T23:14:54.972Z,102461.06
2022-12-18T23:17:25.160Z,102454.78
2022-12-18T23:19:55.368Z,102453.78
2022-12-18T23:22:25.589Z,102453.75
2022-12-18T23:24:55.699Z,102459.42
2022-12-18T23:27:25.964Z,102448.62
2022-12-18T23:29:56.215Z,102458.45
2022-12-18T23:32:28.011Z,102456.60
2022-12-18T23:34:58.223Z,102446.87
2022-12-18T23:37:56.896Z,102447.30
2022-12-18T23:40:00.309Z,102445.44
2022-12-18T23:42:30.525Z,102447.58
2022-12-18T23:45:00.748Z,102453.78
2022-12-18T23:47:32.738Z,102447.55
2022-12-18T23:50:03.168Z,102441.23
2022-12-18T23:52:33.291Z,102443.37
2022-12-18T23:55:03.515Z,102446.44
2022-12-18T23:57:33.725Z,102443.27
